createdAt,value
2023-04-08T00:00:10.509Z,5.13
2023-04-08T00:02:37.441Z,5.17
2023-04-08T00:05:04.432Z,5.17
2023-04-08T00:07:31.314Z,5.17
2023-04-08T00:09:58.031Z,5.17
2023-04-08T00:12:24.747Z,5.18
2023-04-08T00:14:51.422Z,5.13
2023-04-08T00:17:18.105Z,5.04
2023-04-08T00:19:45.128Z,5.00
2023-04-08T00:22:11.910Z,5.02
2023-04-08T00:24:38.611Z,4.97
2023-04-08T00:27:05.466Z,4.96
2023-04-08T00:29:32.368Z,4.83
2023-04-08T00:31:59.068Z,4.86
2023-04-08T00:34:25.659Z,4.77
2023-04-08T00:36:52.386Z,4.82
2023-04-08T00:39:19.083Z,4.83
2023-04-08T00:41:45.855Z,4.71
2023-04-08T00:44:12.539Z,4.78
2023-04-08T00:46:40.319Z,4.84
2023-04-08T00:49:07.773Z,4.88
2023-04-08T00:51:36.606Z,4.90
2023-04-08T00:54:07.355Z,4.89
2023-04-08T00:56:34.820Z,4.85
2023-04-08T00:59:01.916Z,4.83
2023-04-08T01:01:39.645Z,4.84
2023-04-08T01:04:40.587Z,4.83
2023-04-08T01:07:17.444Z,4.79
2023-04-08T01:09:52.578Z,4.81
2023-04-08T01:12:27.259Z,4.83
2023-04-08T01:15:01.742Z,4.82
2023-04-08T01:17:30.546Z,4.85
2023-04-08T01:19:59.629Z,4.77
2023-04-08T01:23:07.351Z,4.78
2023-04-08T01:25:38.810Z,4.81
2023-04-08T01:28:15.786Z,4.83
2023-04-08T01:30:44.971Z,4.84
2023-04-08T01:33:13.535Z,4.81
2023-04-08T01:35:41.010Z,4.83
2023-04-08T01:38:09.972Z,4.83
2023-04-08T01:40:39.377Z,4.81
2023-04-08T01:43:07.872Z,4.80
2023-04-08T01:45:34.558Z,4.80
2023-04-08T01:48:01.826Z,4.82
2023-04-08T01:50:29.761Z,4.84
2023-04-08T01:52:59.196Z,4.85
2023-04-08T01:55:26.479Z,4.84
2023-04-08T01:57:54.382Z,4.83
2023-04-08T02:00:26.055Z,4.85
2023-04-08T02:02:53.887Z,4.87
2023-04-08T02:05:21.065Z,4.87
2023-04-08T02:07:48.839Z,4.88
2023-04-08T02:10:16.298Z,4.89
2023-04-08T02:12:44.414Z,4.97
2023-04-08T02:15:12.412Z,4.94
2023-04-08T02:17:45.854Z,4.92
2023-04-08T02:20:24.483Z,4.90
2023-04-08T02:23:04.713Z,4.93
2023-04-08T02:25:37.691Z,4.91
2023-04-08T02:28:06.980Z,4.92
2023-04-08T02:30:37.352Z,4.92
2023-04-08T02:33:06.095Z,4.88
2023-04-08T02:35:33.757Z,4.84
2023-04-08T02:38:00.642Z,4.84
2023-04-08T02:40:29.299Z,4.85
2023-04-08T02:42:56.474Z,4.85
2023-04-08T02:45:25.800Z,4.88
2023-04-08T02:47:52.604Z,4.86
2023-04-08T02:50:19.317Z,4.90
2023-04-08T02:52:45.967Z,4.91
2023-04-08T02:55:12.648Z,4.92
2023-04-08T02:57:41.239Z,4.92
2023-04-08T03:00:09.303Z,4.91
2023-04-08T03:02:36.554Z,4.93
2023-04-08T03:05:04.422Z,4.95
2023-04-08T03:07:31.683Z,4.96
2023-04-08T03:09:58.626Z,4.96
2023-04-08T03:12:27.537Z,4.98
2023-04-08T03:14:54.719Z,4.96
2023-04-08T03:17:21.668Z,4.97
2023-04-08T03:19:48.449Z,4.97
2023-04-08T03:22:15.556Z,5.01
2023-04-08T03:24:42.288Z,5.01
2023-04-08T03:27:09.013Z,4.91
2023-04-08T03:29:35.606Z,4.85
2023-04-08T03:32:02.511Z,4.79
2023-04-08T03:34:29.198Z,4.81
2023-04-08T03:36:55.815Z,4.82
2023-04-08T03:39:22.616Z,4.83
2023-04-08T03:41:49.259Z,4.86
2023-04-08T03:44:15.945Z,4.76
2023-04-08T03:46:42.582Z,4.72
2023-04-08T03:49:09.352Z,4.77
2023-04-08T03:51:35.982Z,4.78
2023-04-08T03:54:02.682Z,4.77
2023-04-08T03:56:29.371Z,4.75
2023-04-08T03:58:56.024Z,4.76
2023-04-08T04:01:22.729Z,4.79
2023-04-08T04:03:49.475Z,4.83
2023-04-08T04:06:16.360Z,4.90
2023-04-08T04:08:42.957Z,4.89
2023-04-08T04:11:09.611Z,4.91
2023-04-08T04:13:36.319Z,4.96
2023-04-08T04:16:02.979Z,5.03
2023-04-08T04:18:29.678Z,5.03
2023-04-08T04:20:56.482Z,4.97
2023-04-08T04:23:24.461Z,4.94
2023-04-08T04:25:51.231Z,4.92
2023-04-08T04:28:17.905Z,4.96
2023-04-08T04:30:45.740Z,4.96
2023-04-08T04:33:12.430Z,4.99
2023-04-08T04:35:40.055Z,5.01
2023-04-08T04:38:12.680Z,5.02
2023-04-08T04:40:39.693Z,5.05
2023-04-08T04:43:06.498Z,5.04
2023-04-08T04:45:33.251Z,5.04
2023-04-08T04:47:59.921Z,5.01
2023-04-08T04:50:27.444Z,5.02
2023-04-08T04:52:54.069Z,5.05
2023-04-08T04:55:22.419Z,5.07
2023-04-08T04:57:49.754Z,5.08
2023-04-08T05:00:17.163Z,5.09
2023-04-08T05:02:44.176Z,5.09
2023-04-08T05:05:11.137Z,5.09
2023-04-08T05:07:38.703Z,5.11
2023-04-08T05:10:06.165Z,5.07
2023-04-08T05:12:33.200Z,5.05
2023-04-08T05:14:59.776Z,5.00
2023-04-08T05:17:26.758Z,5.04
2023-04-08T05:19:53.703Z,4.90
2023-04-08T05:22:20.394Z,4.95
2023-04-08T05:24:47.080Z,5.03
2023-04-08T05:27:13.714Z,5.09
2023-04-08T05:29:40.338Z,5.14
2023-04-08T05:32:07.307Z,5.17
2023-04-08T05:34:33.975Z,5.16
2023-04-08T05:37:00.907Z,5.16
2023-04-08T05:39:27.646Z,5.14
2023-04-08T05:41:54.289Z,5.13
2023-04-08T05:44:21.099Z,5.13
2023-04-08T05:46:47.736Z,5.09
2023-04-08T05:49:14.505Z,5.01
2023-04-08T05:51:41.253Z,5.09
2023-04-08T05:54:07.890Z,5.13
2023-04-08T05:56:35.056Z,5.18
2023-04-08T05:59:01.700Z,5.15
2023-04-08T06:01:28.279Z,5.12
2023-04-08T06:03:56.586Z,5.15
2023-04-08T06:06:24.200Z,5.25
2023-04-08T06:08:51.075Z,5.36
2023-04-08T06:11:17.948Z,5.37
2023-04-08T06:13:44.567Z,5.41
2023-04-08T06:16:21.331Z,5.42
2023-04-08T06:18:49.189Z,5.42
2023-04-08T06:21:16.047Z,5.47
2023-04-08T06:23:42.721Z,5.48
2023-04-08T06:26:09.362Z,5.44
2023-04-08T06:28:36.278Z,5.44
2023-04-08T06:31:03.033Z,5.47
2023-04-08T06:33:29.713Z,5.54
2023-04-08T06:36:07.343Z,5.54
2023-04-08T06:38:34.765Z,5.64
2023-04-08T06:41:07.972Z,5.65
2023-04-08T06:43:36.567Z,5.64
2023-04-08T06:46:03.892Z,5.65
2023-04-08T06:48:31.009Z,5.59
2023-04-08T06:50:58.547Z,5.53
2023-04-08T06:53:25.730Z,5.52
2023-04-08T06:55:52.709Z,5.55
2023-04-08T06:58:19.314Z,5.56
2023-04-08T07:00:46.180Z,5.56
2023-04-08T07:03:13.170Z,5.59
2023-04-08T07:05:40.015Z,5.55
2023-04-08T07:08:06.710Z,5.53
2023-04-08T07:10:34.993Z,5.52
2023-04-08T07:13:02.090Z,5.51
2023-04-08T07:15:28.718Z,5.60
2023-04-08T07:17:58.854Z,5.59
2023-04-08T07:20:26.219Z,5.60
2023-04-08T07:22:52.889Z,5.57
2023-04-08T07:25:19.761Z,5.60
2023-04-08T07:27:46.619Z,5.62
2023-04-08T07:30:13.499Z,5.63
2023-04-08T07:32:40.254Z,5.56
2023-04-08T07:35:07.251Z,5.61
2023-04-08T07:37:33.955Z,5.60
2023-04-08T07:40:00.891Z,5.57
2023-04-08T07:42:27.510Z,5.57
2023-04-08T07:44:54.202Z,5.61
2023-04-08T07:47:21.253Z,5.65
2023-04-08T07:49:48.487Z,5.61
2023-04-08T07:52:15.805Z,5.63
2023-04-08T07:54:42.496Z,5.65
2023-04-08T07:57:09.208Z,5.61
2023-04-08T07:59:36.227Z,5.52
2023-04-08T08:02:03.541Z,5.53
2023-04-08T08:04:30.518Z,5.56
2023-04-08T08:06:57.247Z,5.55
2023-04-08T08:09:23.941Z,5.55
2023-04-08T08:11:50.486Z,5.66
2023-04-08T08:14:17.077Z,5.56
2023-04-08T08:16:44.615Z,5.56
2023-04-08T08:19:12.463Z,5.58
2023-04-08T08:21:42.318Z,5.66
2023-04-08T08:24:09.431Z,5.71
2023-04-08T08:26:39.424Z,5.81
2023-04-08T08:29:08.897Z,5.85
2023-04-08T08:31:35.815Z,5.90
2023-04-08T08:34:02.935Z,5.93
2023-04-08T08:36:29.577Z,6.07
2023-04-08T08:38:56.500Z,6.23
2023-04-08T08:41:23.246Z,6.05
2023-04-08T08:43:50.187Z,6.02
2023-04-08T08:46:19.374Z,6.13
2023-04-08T08:48:46.550Z,6.18
2023-04-08T08:51:14.801Z,6.26
2023-04-08T08:53:45.684Z,6.35
2023-04-08T08:58:42.064Z,6.21
2023-04-08T09:01:30.546Z,6.16
2023-04-08T09:04:11.165Z,6.08
2023-04-08T09:06:38.543Z,6.12
2023-04-08T09:09:11.236Z,6.15
2023-04-08T09:11:40.875Z,6.20
2023-04-08T09:14:22.846Z,6.24
2023-04-08T09:16:50.113Z,6.32
2023-04-08T09:19:17.018Z,6.19
2023-04-08T09:21:44.157Z,6.15
2023-04-08T09:24:29.055Z,6.16
2023-04-08T09:26:56.622Z,6.22
2023-04-08T09:29:31.261Z,6.11
2023-04-08T09:42:53.708Z,5.99
2023-04-08T09:45:20.862Z,6.09
2023-04-08T09:48:04.557Z,6.10
2023-04-08T09:50:39.474Z,6.05
2023-04-08T09:53:15.683Z,6.05
2023-04-08T09:55:45.289Z,5.99
2023-04-08T09:58:19.200Z,6.11
2023-04-08T10:00:50.767Z,6.18
2023-04-08T10:03:29.484Z,6.22
2023-04-08T10:05:58.637Z,6.15
2023-04-08T10:08:27.148Z,6.11
2023-04-08T10:10:55.217Z,6.17
2023-04-08T10:13:22.834Z,6.20
2023-04-08T10:15:49.550Z,6.27
2023-04-08T10:18:19.138Z,6.37
2023-04-08T10:20:47.496Z,6.40
2023-04-08T10:23:16.198Z,6.43
2023-04-08T10:25:47.929Z,6.44
2023-04-08T10:28:15.277Z,6.47
2023-04-08T10:30:51.473Z,6.58
2023-04-08T10:33:21.585Z,6.59
2023-04-08T10:36:11.746Z,6.51
2023-04-08T10:38:39.612Z,6.56
2023-04-08T10:41:06.378Z,6.62
2023-04-08T10:43:37.208Z,6.72
2023-04-08T10:46:04.985Z,6.83
2023-04-08T10:48:31.945Z,6.80
2023-04-08T10:51:00.217Z,6.74
2023-04-08T10:53:37.759Z,6.78
2023-04-08T10:56:13.269Z,6.78
2023-04-08T10:58:57.697Z,6.87
2023-04-08T11:01:24.440Z,7.03
2023-04-08T11:03:51.808Z,7.07
2023-04-08T11:06:19.566Z,7.00
2023-04-08T11:08:47.289Z,7.12
2023-04-08T11:11:15.472Z,7.10
2023-04-08T11:13:52.816Z,7.05
2023-04-08T11:16:22.542Z,6.96
2023-04-08T11:18:50.640Z,7.01
2023-04-08T11:21:17.379Z,7.04
2023-04-08T11:23:44.149Z,7.12
2023-04-08T11:26:11.633Z,7.13
2023-04-08T11:28:38.835Z,7.24
2023-04-08T11:31:06.321Z,7.31
2023-04-08T11:33:33.467Z,7.33
2023-04-08T11:36:02.202Z,7.29
2023-04-08T11:38:29.412Z,7.38
2023-04-08T11:40:59.934Z,7.49
2023-04-08T11:43:27.185Z,7.55
2023-04-08T11:45:53.773Z,7.70
2023-04-08T11:48:20.673Z,7.67
2023-04-08T11:50:47.352Z,7.77
2023-04-08T11:53:21.709Z,7.78
2023-04-08T11:55:49.119Z,7.57
2023-04-08T11:58:15.926Z,7.67
2023-04-08T12:00:43.732Z,7.78
2023-04-08T12:03:11.307Z,7.92
2023-04-08T12:05:38.058Z,7.92
2023-04-08T12:08:04.825Z,7.81
2023-04-08T12:10:31.445Z,7.81
2023-04-08T12:12:58.055Z,7.96
2023-04-08T12:15:24.678Z,8.01
2023-04-08T12:17:51.441Z,7.96
2023-04-08T12:20:18.655Z,7.91
2023-04-08T12:22:45.575Z,7.93
2023-04-08T12:25:12.292Z,7.79
2023-04-08T12:27:38.946Z,7.63
2023-04-08T12:30:06.016Z,7.62
2023-04-08T12:32:33.678Z,7.60
2023-04-08T12:35:00.480Z,7.56
2023-04-08T12:37:27.706Z,7.46
2023-04-08T12:39:54.287Z,7.45
2023-04-08T12:42:20.937Z,7.43
2023-04-08T12:44:47.511Z,7.55
2023-04-08T12:47:14.129Z,7.44
2023-04-08T12:52:10.378Z,7.21
2023-04-08T12:54:37.037Z,7.21
2023-04-08T12:57:04.637Z,7.09
2023-04-08T12:59:32.238Z,7.14
2023-04-08T13:01:59.237Z,7.11
2023-04-08T13:04:25.950Z,7.12
2023-04-08T13:06:52.793Z,7.14
2023-04-08T13:09:19.378Z,7.01
2023-04-08T13:11:45.985Z,7.09
2023-04-08T13:14:13.751Z,7.15
2023-04-08T13:16:40.551Z,7.07
2023-04-08T13:19:07.259Z,7.06
2023-04-08T13:21:33.832Z,7.01
2023-04-08T13:24:00.528Z,6.93
2023-04-08T13:26:27.442Z,6.94
2023-04-08T13:28:57.790Z,6.87
2023-04-08T13:31:25.464Z,6.84
2023-04-08T13:33:53.885Z,6.96
2023-04-08T13:36:21.959Z,6.98
2023-04-08T13:38:48.755Z,7.23
2023-04-08T13:41:15.557Z,7.45
2023-04-08T13:43:42.373Z,7.85
2023-04-08T13:46:09.356Z,8.02
2023-04-08T13:48:36.078Z,8.08
2023-04-08T13:51:03.544Z,8.14
2023-04-08T13:53:30.278Z,8.24
2023-04-08T13:55:59.038Z,8.34
2023-04-08T13:58:26.622Z,8.02
2023-04-08T14:00:53.536Z,7.96
2023-04-08T14:03:20.244Z,8.03
2023-04-08T14:05:48.279Z,8.16
2023-04-08T14:08:14.864Z,8.15
2023-04-08T14:10:42.275Z,8.13
2023-04-08T14:13:09.201Z,8.21
2023-04-08T14:15:36.237Z,8.31
2023-04-08T14:18:02.993Z,8.32
2023-04-08T14:20:30.299Z,8.29
2023-04-08T14:22:57.030Z,8.51
2023-04-08T14:25:24.378Z,8.49
2023-04-08T14:27:58.465Z,8.55
2023-04-08T14:30:27.202Z,8.69
2023-04-08T14:32:54.605Z,8.65
2023-04-08T14:35:21.672Z,8.84
2023-04-08T14:37:48.467Z,8.93
2023-04-08T14:40:15.072Z,8.98
2023-04-08T14:42:42.010Z,9.02
2023-04-08T14:45:09.149Z,9.05
2023-04-08T14:47:36.009Z,9.17
2023-04-08T14:50:02.747Z,9.19
2023-04-08T14:52:29.362Z,9.05
2023-04-08T14:54:56.018Z,8.89
2023-04-08T14:57:22.622Z,9.00
2023-04-08T14:59:49.225Z,9.02
2023-04-08T15:02:15.992Z,9.11
2023-04-08T15:04:42.722Z,9.01
2023-04-08T15:07:09.347Z,9.03
2023-04-08T15:09:36.174Z,8.87
2023-04-08T15:12:03.140Z,8.98
2023-04-08T15:14:29.821Z,8.95
2023-04-08T15:16:56.414Z,8.99
2023-04-08T15:19:23.745Z,8.94
2023-04-08T15:21:50.357Z,8.89
2023-04-08T15:24:17.083Z,8.90
2023-04-08T15:26:43.733Z,8.83
2023-04-08T15:29:10.385Z,8.82
2023-04-08T15:31:37.340Z,8.77
2023-04-08T15:34:04.028Z,8.60
2023-04-08T15:36:30.978Z,8.52
2023-04-08T15:38:57.686Z,8.53
2023-04-08T15:41:24.383Z,8.51
2023-04-08T15:43:53.210Z,8.39
2023-04-08T15:46:23.505Z,8.35
2023-04-08T15:48:50.725Z,8.34
2023-04-08T15:51:18.037Z,8.28
2023-04-08T15:53:44.771Z,8.43
2023-04-08T15:56:16.320Z,8.45
2023-04-08T15:58:43.730Z,8.44
2023-04-08T16:01:10.577Z,8.43
2023-04-08T16:03:37.400Z,8.48
2023-04-08T16:06:06.106Z,8.51
2023-04-08T16:08:34.854Z,8.47
2023-04-08T16:11:03.217Z,8.51
2023-04-08T16:13:30.183Z,8.48
2023-04-08T16:16:05.926Z,8.42
2023-04-08T16:18:32.613Z,8.48
2023-04-08T16:20:59.364Z,8.40
2023-04-08T16:23:26.190Z,8.37
2023-04-08T16:25:52.815Z,8.34
2023-04-08T16:28:19.637Z,8.35
2023-04-08T16:30:47.889Z,8.38
2023-04-08T16:33:14.620Z,8.36
2023-04-08T16:35:41.250Z,8.42
2023-04-08T16:38:07.905Z,8.38
2023-04-08T16:40:34.830Z,8.36
2023-04-08T16:43:02.394Z,8.34
2023-04-08T16:45:30.320Z,8.32
2023-04-08T16:47:57.789Z,8.28
2023-04-08T16:50:24.725Z,8.35
2023-04-08T16:52:51.731Z,8.35
2023-04-08T16:55:19.497Z,8.29
2023-04-08T16:57:46.367Z,8.33
2023-04-08T17:00:13.521Z,8.30
2023-04-08T17:02:40.433Z,8.39
2023-04-08T17:05:07.764Z,8.43
2023-04-08T17:07:34.615Z,8.45
2023-04-08T17:10:01.235Z,8.43
2023-04-08T17:12:27.820Z,8.47
2023-04-08T17:14:54.519Z,8.50
2023-04-08T17:17:21.220Z,8.49
2023-04-08T17:19:48.047Z,8.46
2023-04-08T17:22:14.655Z,8.45
2023-04-08T17:24:41.326Z,8.47
2023-04-08T17:27:07.939Z,8.52
2023-04-08T17:29:34.547Z,8.40
2023-04-08T17:32:01.461Z,8.39
2023-04-08T17:34:29.231Z,8.32
2023-04-08T17:36:56.902Z,8.32
2023-04-08T17:39:23.527Z,8.33
2023-04-08T17:41:50.114Z,8.33
2023-04-08T17:44:17.173Z,8.31
2023-04-08T17:46:43.797Z,8.33
2023-04-08T17:49:14.259Z,8.30
2023-04-08T17:51:41.034Z,8.27
2023-04-08T17:54:07.724Z,8.25
2023-04-08T17:56:34.347Z,8.26
2023-04-08T17:59:01.904Z,8.24
2023-04-08T18:01:28.642Z,8.15
2023-04-08T18:03:56.212Z,8.13
2023-04-08T18:06:23.024Z,8.06
2023-04-08T18:08:50.008Z,8.04
2023-04-08T18:11:16.635Z,8.01
2023-04-08T18:13:43.294Z,8.02
2023-04-08T18:16:17.426Z,7.98
2023-04-08T18:18:44.730Z,7.99
2023-04-08T18:21:11.333Z,7.95
2023-04-08T18:23:38.104Z,7.93
2023-04-08T18:26:04.724Z,7.92
2023-04-08T18:28:31.609Z,7.93
2023-04-08T18:30:58.353Z,7.90
2023-04-08T18:33:25.279Z,7.80
2023-04-08T18:35:52.706Z,7.78
2023-04-08T18:38:19.581Z,7.79
2023-04-08T18:40:46.894Z,7.75
2023-04-08T18:43:13.848Z,7.71
2023-04-08T18:45:41.338Z,7.69
2023-04-08T18:48:08.486Z,7.61
2023-04-08T18:50:35.326Z,7.60
2023-04-08T18:55:30.358Z,7.64
2023-04-08T18:57:57.242Z,7.60
2023-04-08T19:00:24.076Z,7.58
2023-04-08T19:02:51.056Z,7.52
2023-04-08T19:05:17.961Z,7.54
2023-04-08T19:07:44.566Z,7.53
2023-04-08T19:10:11.323Z,7.50
2023-04-08T19:12:37.892Z,7.47
2023-04-08T19:15:04.935Z,7.43
2023-04-08T19:17:31.595Z,7.43
2023-04-08T19:19:58.840Z,7.44
2023-04-08T19:22:25.456Z,7.36
2023-04-08T19:24:54.384Z,7.42
2023-04-08T19:27:21.722Z,7.39
2023-04-08T19:29:48.349Z,7.42
2023-04-08T19:32:15.411Z,7.40
2023-04-08T19:34:42.522Z,7.43
2023-04-08T19:37:09.354Z,7.42
2023-04-08T19:39:36.021Z,7.42
2023-04-08T19:42:02.652Z,7.42
2023-04-08T19:44:29.927Z,7.41
2023-04-08T19:46:57.814Z,7.41
2023-04-08T19:49:24.931Z,7.41
2023-04-08T19:51:51.925Z,7.40
2023-04-08T19:54:18.540Z,7.34
2023-04-08T19:56:45.664Z,7.34
2023-04-08T19:59:12.432Z,7.33
2023-04-08T20:01:40.056Z,7.34
2023-04-08T20:04:07.142Z,7.36
2023-04-08T20:06:34.835Z,7.35
2023-04-08T20:09:05.684Z,7.36
2023-04-08T20:11:33.825Z,7.38
2023-04-08T20:14:00.686Z,7.37
2023-04-08T20:16:27.995Z,7.36
2023-04-08T20:18:54.676Z,7.32
2023-04-08T20:21:21.714Z,7.29
2023-04-08T20:23:48.319Z,7.24
2023-04-08T20:26:15.706Z,7.25
2023-04-08T20:28:43.612Z,7.27
2023-04-08T20:31:10.599Z,7.27
2023-04-08T20:33:43.758Z,7.26
2023-04-08T20:36:12.484Z,7.28
2023-04-08T20:38:40.570Z,7.30
2023-04-08T20:41:07.219Z,7.28
2023-04-08T20:43:33.991Z,7.27
2023-04-08T20:46:01.144Z,7.27
2023-04-08T20:48:29.411Z,7.28
2023-04-08T20:50:56.339Z,7.26
2023-04-08T20:53:23.762Z,7.24
2023-04-08T20:55:50.444Z,7.25
2023-04-08T20:58:18.293Z,7.24
2023-04-08T21:00:47.508Z,7.25
2023-04-08T21:03:14.609Z,7.18
2023-04-08T21:05:41.942Z,7.17
2023-04-08T21:08:08.985Z,7.20
2023-04-08T21:10:35.862Z,7.24
2023-04-08T21:13:02.488Z,7.20
2023-04-08T21:15:29.299Z,7.18
2023-04-08T21:17:56.153Z,7.18
2023-04-08T21:20:23.104Z,7.20
2023-04-08T21:22:49.726Z,7.17
2023-04-08T21:25:18.037Z,7.11
2023-04-08T21:27:44.767Z,7.04
2023-04-08T21:30:11.889Z,7.00
2023-04-08T21:32:38.879Z,7.00
2023-04-08T21:35:05.761Z,6.99
2023-04-08T21:37:32.448Z,6.95
2023-04-08T21:39:59.052Z,6.99
2023-04-08T21:42:26.381Z,7.04
2023-04-08T21:44:53.181Z,7.05
2023-04-08T21:47:19.812Z,7.07
2023-04-08T21:49:46.498Z,7.03
2023-04-08T21:52:13.093Z,6.99
2023-04-08T21:54:39.681Z,6.92
2023-04-08T21:57:06.381Z,6.94
2023-04-08T21:59:32.976Z,6.91
2023-04-08T22:01:59.864Z,6.92
2023-04-08T22:04:27.670Z,6.93
2023-04-08T22:06:54.670Z,6.94
2023-04-08T22:09:21.729Z,6.87
2023-04-08T22:11:48.354Z,6.86
2023-04-08T22:14:15.682Z,6.85
2023-04-08T22:16:43.109Z,6.82
2023-04-08T22:19:09.896Z,6.85
2023-04-08T22:21:36.734Z,6.79
2023-04-08T22:24:03.578Z,6.76
2023-04-08T22:26:30.563Z,6.79
2023-04-08T22:28:57.213Z,6.78
2023-04-08T22:31:24.013Z,6.78
2023-04-08T22:33:50.757Z,6.77
2023-04-08T22:36:17.386Z,6.75
2023-04-08T22:38:44.035Z,6.71
2023-04-08T22:41:21.002Z,6.73
2023-04-08T22:43:48.272Z,6.73
2023-04-08T22:46:15.172Z,6.69
2023-04-08T22:48:41.957Z,6.70
2023-04-08T22:51:09.439Z,6.70
2023-04-08T22:53:36.864Z,6.73
2023-04-08T22:56:04.365Z,6.72
2023-04-08T22:58:31.202Z,6.73
2023-04-08T23:00:58.364Z,6.76
2023-04-08T23:03:25.042Z,6.81
2023-04-08T23:05:52.023Z,6.81
2023-04-08T23:08:18.697Z,6.79
2023-04-08T23:10:45.391Z,6.80
2023-04-08T23:13:14.063Z,6.83
2023-04-08T23:15:40.865Z,6.88
2023-04-08T23:18:07.541Z,6.89
2023-04-08T23:20:35.531Z,6.87
2023-04-08T23:23:03.441Z,6.88
2023-04-08T23:25:30.301Z,6.91
2023-04-08T23:27:56.912Z,6.88
2023-04-08T23:30:23.508Z,6.87
2023-04-08T23:32:50.394Z,6.85
2023-04-08T23:35:17.358Z,6.88
2023-04-08T23:37:43.963Z,6.87
2023-04-08T23:40:11.145Z,6.85
2023-04-08T23:42:37.824Z,6.85
2023-04-08T23:45:05.656Z,6.83
2023-04-08T23:47:32.318Z,6.83
2023-04-08T23:49:58.963Z,6.86
2023-04-08T23:52:26.009Z,6.84
2023-04-08T23:54:52.660Z,6.80
2023-04-08T23:57:22.326Z,6.76
2023-04-08T23:59:48.927Z,6.78
